Time;durP1;ratioP1;P1;durP2;ratioP2;P2;SDS_P1;SDS_P2;PMS_P1;PMS_P2;Temp;Humidity;BMP_temperature;BMP_pressure;BME280_temperature;BME280_humidity;BME280_pressure;Samples;Min_cycle;Max_cycle;Signal;HPM_P1;HPM_P2
2021/03/24 00:02:16;;;;;;;13.78;8.00;;;;;;;4.89;75.97;99300.58;2287706;78;21288;-89
2021/03/24 00:05:18;;;;;;;13.10;9.15;;;;;;;4.89;75.85;99299.77;2287424;78;21129;-89
2021/03/24 00:08:20;;;;;;;14.80;8.93;;;;;;;4.87;75.89;99305.56;2287276;78;21692;-89
2021/03/24 00:11:21;;;;;;;16.15;10.03;;;;;;;4.83;76.05;99314.88;2287225;78;21720;-89
2021/03/24 00:14:23;;;;;;;12.78;8.83;;;;;;;4.78;75.83;99301.97;2287237;78;21567;-89
2021/03/24 00:17:24;;;;;;;13.70;8.95;;;;;;;4.76;75.73;99309.06;2287675;78;21244;-89
2021/03/24 00:20:26;;;;;;;15.00;9.90;;;;;;;4.77;75.74;99302.92;2287604;78;21255;-89
2021/03/24 00:23:28;;;;;;;12.75;8.75;;;;;;;4.76;75.70;99311.66;2287187;77;21272;-90
2021/03/24 00:26:30;;;;;;;17.00;9.85;;;;;;;4.71;75.67;99302.94;2287437;78;21561;-89
2021/03/24 00:29:31;;;;;;;14.73;9.85;;;;;;;4.71;75.67;99309.43;2287621;78;21268;-89
2021/03/24 00:32:33;;;;;;;15.93;10.32;;;;;;;4.73;75.75;99310.59;2287539;78;21168;-89
2021/03/24 00:35:34;;;;;;;16.17;9.73;;;;;;;4.70;75.58;99310.38;2287401;78;21279;-89
2021/03/24 00:38:36;;;;;;;16.30;9.85;;;;;;;4.66;75.70;99308.98;2287671;78;21256;-89
2021/03/24 00:41:37;;;;;;;14.78;8.88;;;;;;;4.62;75.99;99312.78;2290764;78;21165;-89
2021/03/24 00:44:39;;;;;;;16.48;9.58;;;;;;;4.63;75.85;99314.42;2292261;77;21408;-87
2021/03/24 00:47:42;;;;;;;14.35;9.30;;;;;;;4.65;75.70;99311.70;2292950;78;21121;-88
2021/03/24 00:50:43;;;;;;;13.62;9.43;;;;;;;4.64;75.82;99302.28;2288719;78;21299;-88
2021/03/24 00:53:45;;;;;;;20.15;8.60;;;;;;;4.61;75.87;99296.06;2287403;78;21122;-88
2021/03/24 00:56:47;;;;;;;13.30;9.25;;;;;;;4.59;76.03;99304.45;2287994;78;21311;-89
2021/03/24 00:59:48;;;;;;;11.57;8.80;;;;;;;4.59;75.69;99307.05;2287640;78;21268;-89
2021/03/24 01:02:50;;;;;;;13.13;8.65;;;;;;;4.59;76.04;99302.67;2287671;78;21696;-89
2021/03/24 01:05:52;;;;;;;17.23;9.38;;;;;;;4.56;75.82;99293.83;2291325;78;21070;-88
2021/03/24 01:08:53;;;;;;;17.15;9.75;;;;;;;4.52;76.12;99310.13;2292246;77;21109;-88
2021/03/24 01:11:55;;;;;;;10.30;7.83;;;;;;;4.53;75.85;99306.59;2292259;77;21149;-89
2021/03/24 01:14:56;;;;;;;19.30;10.63;;;;;;;4.52;75.89;99308.84;2291487;78;21157;-89
2021/03/24 01:17:58;;;;;;;16.25;10.53;;;;;;;4.49;75.97;99308.28;2288588;77;21260;-89
2021/03/24 01:21:00;;;;;;;16.05;9.98;;;;;;;4.46;75.92;99312.40;2287105;78;21283;-89
2021/03/24 01:24:02;;;;;;;14.85;9.53;;;;;;;4.46;76.12;99313.70;2287069;78;21278;-90
2021/03/24 01:27:03;;;;;;;22.13;10.58;;;;;;;4.47;75.98;99316.63;2287505;77;21289;-89
2021/03/24 01:30:05;;;;;;;19.07;9.55;;;;;;;4.47;76.00;99320.52;2287424;77;21301;-89
2021/03/24 01:33:06;;;;;;;15.98;9.53;;;;;;;4.46;76.06;99314.52;2287293;78;21610;-89
2021/03/24 01:36:08;;;;;;;13.50;8.95;;;;;;;4.45;75.77;99314.65;2287139;78;21093;-89
2021/03/24 01:39:10;;;;;;;13.38;7.62;;;;;;;4.46;75.99;99317.59;2287264;78;21553;-89
2021/03/24 01:42:11;;;;;;;18.67;11.12;;;;;;;4.46;76.02;99312.40;2223726;76;21832;-81
2021/03/24 01:45:13;;;;;;;13.90;9.58;;;;;;;4.44;75.81;99312.53;2167269;81;21516;-82
2021/03/24 01:48:14;;;;;;;19.87;10.35;;;;;;;4.44;75.83;99307.82;2189024;81;21709;-81
2021/03/24 01:51:16;;;;;;;15.88;9.98;;;;;;;4.41;76.12;99318.45;2189199;81;21302;-80
2021/03/24 01:54:17;;;;;;;16.05;8.65;;;;;;;4.38;75.90;99314.32;2188598;81;21298;-80
2021/03/24 01:57:19;;;;;;;15.75;11.28;;;;;;;4.38;75.95;99317.39;2188832;81;21144;-81
2021/03/24 02:00:21;;;;;;;19.07;10.88;;;;;;;4.38;75.93;99312.20;2213244;80;21129;-82
2021/03/24 02:03:22;;;;;;;14.68;9.98;;;;;;;4.36;75.95;99319.29;2213482;80;21138;-82
2021/03/24 02:06:24;;;;;;;16.42;10.38;;;;;;;4.35;76.02;99324.13;2213784;80;21287;-81
2021/03/24 02:09:26;;;;;;;19.07;10.53;;;;;;;4.32;76.06;99322.63;2213832;80;21173;-81
2021/03/24 02:12:28;;;;;;;13.08;10.00;;;;;;;4.31;76.16;99327.94;2213481;80;21133;-80
2021/03/24 02:15:29;;;;;;;15.85;9.38;;;;;;;4.32;75.96;99332.17;2214154;80;21321;-81
2021/03/24 02:18:32;;;;;;;16.23;10.32;;;;;;;4.33;76.07;99328.63;2213378;80;21118;-81
2021/03/24 02:21:34;;;;;;;16.55;11.10;;;;;;;4.26;76.08;99327.81;2213657;80;21189;-81
2021/03/24 02:24:36;;;;;;;17.07;10.48;;;;;;;4.24;76.29;99330.19;2213570;80;21303;-80
2021/03/24 02:27:37;;;;;;;15.10;9.45;;;;;;;4.25;76.15;99328.77;2213321;80;21264;-81
2021/03/24 02:30:39;;;;;;;16.05;9.33;;;;;;;4.26;76.02;99331.70;2213548;80;21118;-80
2021/03/24 02:33:40;;;;;;;17.20;9.93;;;;;;;4.26;76.19;99333.48;2213289;80;21149;-81
2021/03/24 02:36:42;;;;;;;14.53;9.05;;;;;;;4.24;76.20;99341.38;2213500;80;21695;-81
2021/03/24 02:39:44;;;;;;;17.45;10.78;;;;;;;4.22;76.30;99336.80;2213648;80;21165;-81
2021/03/24 02:42:45;;;;;;;19.92;11.38;;;;;;;4.22;76.25;99330.32;2211023;79;21292;-82
2021/03/24 02:45:47;;;;;;;18.95;9.70;;;;;;;4.25;76.08;99325.35;2209199;80;21125;-82
2021/03/24 02:48:49;;;;;;;17.30;11.53;;;;;;;4.27;76.06;99339.01;2209477;81;21138;-80
2021/03/24 02:51:50;;;;;;;16.42;10.40;;;;;;;4.26;76.17;99338.19;2209375;81;21138;-81
2021/03/24 02:54:52;;;;;;;16.42;9.43;;;;;;;4.23;76.33;99342.81;2209515;81;21168;-81
2021/03/24 02:57:54;;;;;;;18.20;10.90;;;;;;;4.20;76.28;99339.14;2209542;81;21288;-81
2021/03/24 03:00:55;;;;;;;12.68;8.08;;;;;;;4.21;76.29;99344.23;2209849;81;21338;-80
2021/03/24 03:03:57;;;;;;;12.95;9.25;;;;;;;4.21;76.32;99342.12;2209445;80;21121;-81
2021/03/24 03:06:58;;;;;;;17.62;9.98;;;;;;;4.19;76.42;99336.20;2208956;81;21303;-82
2021/03/24 03:10:00;;;;;;;18.77;10.88;;;;;;;4.16;76.51;99337.28;2208944;80;21151;-80
2021/03/24 03:13:01;;;;;;;16.40;9.95;;;;;;;4.14;76.46;99329.30;2209294;81;21633;-81
2021/03/24 03:16:03;;;;;;;13.98;9.20;;;;;;;4.15;76.57;99342.12;2209407;81;21292;-81
2021/03/24 03:19:05;;;;;;;14.33;9.28;;;;;;;4.16;76.57;99345.06;2209287;80;21117;-81
2021/03/24 03:22:06;;;;;;;17.75;10.48;;;;;;;4.15;76.68;99346.48;2209470;80;21589;-82
2021/03/24 03:25:08;;;;;;;18.62;10.98;;;;;;;4.11;76.71;99338.12;2209159;81;21768;-82
2021/03/24 03:28:10;;;;;;;15.63;11.12;;;;;;;4.12;76.66;99339.79;2209644;80;21182;-81
2021/03/24 03:31:12;;;;;;;14.30;8.50;;;;;;;4.13;76.51;99340.61;2209779;81;21272;-82
2021/03/24 03:34:13;;;;;;;18.57;11.03;;;;;;;4.15;76.64;99343.89;2209440;81;21197;-80
2021/03/24 03:37:15;;;;;;;19.05;10.60;;;;;;;4.13;76.78;99346.62;2209563;80;21149;-81
2021/03/24 03:40:17;;;;;;;18.12;11.45;;;;;;;4.13;76.60;99341.43;2209711;80;21118;-81
2021/03/24 03:43:19;;;;;;;14.53;8.68;;;;;;;4.14;76.45;99347.44;2239803;78;21570;-82
2021/03/24 03:46:20;;;;;;;16.73;10.08;;;;;;;4.16;76.62;99342.95;2257846;79;21713;-81
2021/03/24 03:49:22;;;;;;;17.70;11.20;;;;;;;4.16;76.53;99337.77;2257793;79;21152;-80
2021/03/24 03:52:24;;;;;;;16.25;10.72;;;;;;;4.19;76.49;99329.73;2257803;78;21172;-81
2021/03/24 03:55:25;;;;;;;18.95;11.28;;;;;;;4.16;76.47;99325.63;2258055;79;21266;-81
2021/03/24 03:58:27;;;;;;;19.12;11.10;;;;;;;4.17;76.72;99331.63;2258218;79;21132;-81
2021/03/24 04:01:29;;;;;;;23.90;12.33;;;;;;;4.16;76.57;99324.80;2257753;79;21259;-80
2021/03/24 04:04:30;;;;;;;16.50;9.68;;;;;;;4.16;76.65;99320.91;2257942;79;21251;-80
2021/03/24 04:07:32;;;;;;;19.02;11.40;;;;;;;4.18;76.58;99320.31;2258249;79;21172;-80
2021/03/24 04:10:34;;;;;;;19.20;11.78;;;;;;;4.17;76.68;99333.74;2259834;79;21310;-79
2021/03/24 04:13:35;;;;;;;20.97;12.68;;;;;;;4.17;76.54;99338.11;2258979;79;21302;-79
2021/03/24 04:16:37;;;;;;;17.17;11.78;;;;;;;4.16;76.71;99334.70;2258808;79;21286;-81
2021/03/24 04:19:39;;;;;;;14.78;10.55;;;;;;;4.16;76.72;99340.36;2258216;79;21128;-81
2021/03/24 04:22:40;;;;;;;23.27;12.05;;;;;;;4.14;76.66;99346.14;2258042;79;21290;-81
2021/03/24 04:25:42;;;;;;;16.70;10.32;;;;;;;4.12;76.61;99341.09;2258006;79;21148;-81
2021/03/24 04:28:43;;;;;;;18.35;11.68;;;;;;;4.13;76.67;99350.98;2257940;79;21729;-80
2021/03/24 04:31:45;;;;;;;22.00;11.48;;;;;;;4.14;76.71;99352.62;2257990;78;21140;-81
2021/03/24 04:34:47;;;;;;;24.47;13.93;;;;;;;4.13;76.62;99345.80;2258090;79;21263;-82
2021/03/24 04:37:49;;;;;;;23.83;13.40;;;;;;;4.13;76.66;99358.28;2257999;79;21115;-82
2021/03/24 04:40:50;;;;;;;23.60;13.93;;;;;;;4.13;76.82;99357.45;2258054;79;21158;-82
2021/03/24 04:43:52;;;;;;;28.55;15.40;;;;;;;4.12;76.73;99360.52;2222770;78;21197;-81
2021/03/24 04:46:54;;;;;;;21.00;13.70;;;;;;;4.12;76.71;99356.64;2209302;81;21161;-81
2021/03/24 04:49:55;;;;;;;31.85;16.73;;;;;;;4.11;76.68;99356.73;2209535;80;21676;-81
2021/03/24 04:52:57;;;;;;;26.97;13.65;;;;;;;4.13;76.75;99360.87;2209287;80;21256;-81
2021/03/24 04:55:59;;;;;;;26.00;13.60;;;;;;;4.12;76.94;99364.41;2209271;81;21126;-81
2021/03/24 04:59:00;;;;;;;17.80;10.45;;;;;;;4.12;76.87;99370.07;2209474;80;21172;-81
2021/03/24 05:02:02;;;;;;;24.60;13.60;;;;;;;4.11;77.03;99371.81;2209372;81;21186;-81
2021/03/24 05:05:04;;;;;;;27.90;12.55;;;;;;;4.11;76.75;99374.41;2209310;80;21283;-81
2021/03/24 05:08:06;;;;;;;23.55;13.05;;;;;;;4.12;76.74;99370.07;2209624;80;21133;-81
2021/03/24 05:11:08;;;;;;;21.20;12.05;;;;;;;4.17;76.82;99373.09;2209501;81;21133;-80
2021/03/24 05:14:11;;;;;;;25.85;13.88;;;;;;;4.24;76.72;99368.60;2209616;81;21202;-81
2021/03/24 05:17:13;;;;;;;16.75;11.43;;;;;;;4.26;76.63;99388.73;2209743;81;21272;-83
2021/03/24 05:20:14;;;;;;;24.65;13.35;;;;;;;4.28;76.62;99379.54;2209381;81;21739;-80
2021/03/24 05:23:16;;;;;;;22.05;13.08;;;;;;;4.28;76.60;99390.73;2209259;81;21311;-82
2021/03/24 05:26:17;;;;;;;21.42;13.48;;;;;;;4.32;76.53;99395.69;2209274;80;21133;-82
2021/03/24 05:29:19;;;;;;;26.20;16.00;;;;;;;4.39;76.53;99401.56;2209264;80;21161;-84
2021/03/24 05:32:20;;;;;;;33.02;16.77;;;;;;;4.45;76.46;99397.63;2209594;81;21708;-81
2021/03/24 05:35:22;;;;;;;29.25;15.13;;;;;;;4.53;76.42;99404.32;2209299;80;21321;-81
2021/03/24 05:38:23;;;;;;;32.80;17.60;;;;;;;4.55;76.26;99407.13;2209548;81;21157;-82
2021/03/24 05:41:25;;;;;;;33.83;17.32;;;;;;;4.58;76.26;99409.97;2209010;81;21288;-82
2021/03/24 05:44:26;;;;;;;31.52;15.72;;;;;;;4.62;76.14;99403.58;2209059;79;21283;-81
2021/03/24 05:47:28;;;;;;;29.42;14.78;;;;;;;4.70;76.03;99402.95;2209241;81;21152;-81
2021/03/24 05:50:30;;;;;;;25.10;14.83;;;;;;;4.77;76.01;99405.41;2209557;80;21154;-81
2021/03/24 05:53:31;;;;;;;30.15;15.00;;;;;;;4.84;75.85;99409.94;2209333;80;21126;-81
2021/03/24 05:56:33;;;;;;;35.20;17.00;;;;;;;4.91;75.78;99411.56;2209370;80;21311;-81
2021/03/24 05:59:34;;;;;;;32.93;17.02;;;;;;;4.92;75.62;99408.48;2209323;81;21141;-81
2021/03/24 06:02:36;;;;;;;42.83;25.02;;;;;;;4.94;75.62;99411.77;2209446;80;21181;-80
2021/03/24 06:05:37;;;;;;;41.83;24.45;;;;;;;4.98;75.41;99414.00;2209240;80;21320;-81
2021/03/24 06:08:39;;;;;;;34.30;20.35;;;;;;;5.03;75.48;99413.61;2209271;81;21130;-82
2021/03/24 06:11:41;;;;;;;30.00;17.20;;;;;;;5.08;75.29;99422.67;2209260;80;21260;-80
2021/03/24 06:14:42;;;;;;;27.40;15.43;;;;;;;5.08;75.26;99417.48;2209613;80;21303;-83
2021/03/24 06:17:44;;;;;;;29.98;17.27;;;;;;;5.13;75.21;99418.41;2209335;80;21172;-81
2021/03/24 06:20:46;;;;;;;32.45;18.15;;;;;;;5.15;75.19;99415.20;2209347;81;21291;-79
2021/03/24 06:23:48;;;;;;;23.50;16.60;;;;;;;5.18;75.02;99415.42;2209210;80;21272;-80
2021/03/24 06:26:49;;;;;;;22.77;15.05;;;;;;;5.21;74.89;99417.30;2209217;80;21260;-81
2021/03/24 06:29:51;;;;;;;29.45;16.37;;;;;;;5.27;74.90;99416.77;2209448;81;21690;-82
2021/03/24 06:32:52;;;;;;;19.90;13.78;;;;;;;5.31;74.78;99422.55;2209212;80;21296;-82
2021/03/24 06:35:54;;;;;;;25.05;16.07;;;;;;;5.31;74.74;99426.44;2209548;81;21318;-80
2021/03/24 06:38:56;;;;;;;24.47;14.13;;;;;;;5.34;74.62;99438.68;2209224;81;21311;-78
2021/03/24 06:41:57;;;;;;;20.50;13.78;;;;;;;5.35;74.47;99431.71;2209140;81;21174;-79
2021/03/24 06:44:59;;;;;;;21.70;13.48;;;;;;;5.40;74.40;99436.87;2209232;79;21148;-79
2021/03/24 06:48:01;;;;;;;17.50;11.93;;;;;;;5.37;74.35;99441.48;2209312;80;21283;-80
2021/03/24 06:51:02;;;;;;;23.83;13.58;;;;;;;5.40;74.47;99445.15;2209529;81;21165;-80
2021/03/24 06:54:04;;;;;;;24.72;12.78;;;;;;;5.44;74.46;99442.63;2209338;80;21295;-83
2021/03/24 06:57:05;;;;;;;23.30;14.28;;;;;;;5.42;74.31;99452.33;2209740;80;21311;-80
2021/03/24 07:00:07;;;;;;;18.02;11.88;;;;;;;5.43;74.25;99450.08;2209160;81;21260;-80
2021/03/24 07:03:09;;;;;;;22.73;14.40;;;;;;;5.47;74.18;99451.45;2209103;80;21129;-80
2021/03/24 07:06:10;;;;;;;22.27;12.50;;;;;;;5.51;74.25;99448.95;2209320;80;21699;-81
2021/03/24 07:09:12;;;;;;;21.10;13.88;;;;;;;5.59;74.21;99453.03;2209633;80;21327;-80
2021/03/24 07:12:14;;;;;;;23.52;14.23;;;;;;;5.67;74.11;99459.70;2209440;80;21146;-80
2021/03/24 07:15:16;;;;;;;23.62;14.05;;;;;;;5.66;73.87;99446.81;2209298;81;21121;-80
2021/03/24 07:18:18;;;;;;;24.52;14.55;;;;;;;5.73;73.97;99458.34;2209551;81;21184;-79
2021/03/24 07:21:19;;;;;;;22.42;14.50;;;;;;;5.80;73.65;99458.17;2209272;80;21173;-80
2021/03/24 07:24:21;;;;;;;23.07;14.10;;;;;;;5.83;73.58;99462.28;2209346;80;21279;-80
2021/03/24 07:27:22;;;;;;;23.77;14.28;;;;;;;5.80;73.54;99462.07;2209518;81;21094;-80
2021/03/24 07:30:24;;;;;;;20.65;13.98;;;;;;;5.74;73.41;99466.48;2209296;80;21164;-79
2021/03/24 07:33:26;;;;;;;25.77;14.20;;;;;;;5.68;73.57;99465.25;2209431;80;21255;-79
2021/03/24 07:36:27;;;;;;;30.68;16.73;;;;;;;5.70;73.64;99467.23;2209244;81;21306;-80
2021/03/24 07:39:29;;;;;;;20.32;13.95;;;;;;;5.79;73.68;99470.00;2209519;80;21288;-80
2021/03/24 07:42:30;;;;;;;23.12;14.80;;;;;;;5.85;73.17;99477.26;2209609;81;21106;-80
2021/03/24 07:45:32;;;;;;;30.15;17.17;;;;;;;5.87;73.18;99480.58;2209281;79;21186;-79
2021/03/24 07:48:34;;;;;;;29.95;15.28;;;;;;;5.96;73.34;99485.02;2209668;80;21307;-80
2021/03/24 07:51:36;;;;;;;30.12;16.85;;;;;;;5.97;72.79;99482.28;2209743;81;21342;-81
2021/03/24 07:54:37;;;;;;;25.12;15.53;;;;;;;6.01;72.96;99482.83;2209300;80;21157;-84
2021/03/24 07:57:39;;;;;;;22.50;15.15;;;;;;;6.04;72.80;99481.28;2209327;81;21094;-81
2021/03/24 08:00:41;;;;;;;28.95;15.68;;;;;;;6.10;72.78;99482.52;2209446;80;21142;-81
2021/03/24 08:03:43;;;;;;;28.15;17.60;;;;;;;6.17;72.64;99485.77;2209425;81;21526;-82
2021/03/24 08:06:44;;;;;;;28.42;17.55;;;;;;;6.22;72.65;99493.18;2208948;81;21171;-82
2021/03/24 08:09:46;;;;;;;24.00;15.68;;;;;;;6.24;72.44;99492.56;2209095;80;21299;-82
2021/03/24 08:12:53;;;;;;;30.20;17.45;;;;;;;6.20;72.12;99489.39;2209398;80;21177;-81
2021/03/24 08:15:54;;;;;;;30.10;17.30;;;;;;;6.25;72.31;99494.20;2209315;80;21110;-81
2021/03/24 08:18:56;;;;;;;27.82;18.00;;;;;;;6.26;72.11;99494.55;2209202;80;21166;-82
2021/03/24 08:21:57;;;;;;;28.87;17.85;;;;;;;6.20;72.09;99491.98;2209476;80;21153;-81
2021/03/24 08:24:59;;;;;;;31.87;18.52;;;;;;;6.22;72.28;99490.09;2209443;81;21156;-82
2021/03/24 08:28:01;;;;;;;29.00;20.12;;;;;;;6.22;72.18;99491.88;2209203;81;21133;-83
2021/03/24 08:31:02;;;;;;;29.07;18.98;;;;;;;6.19;72.07;99490.34;2209564;80;21160;-82
2021/03/24 08:34:04;;;;;;;41.98;22.45;;;;;;;6.06;72.13;99496.27;2209754;81;21180;-83
2021/03/24 08:37:06;;;;;;;30.20;17.05;;;;;;;6.08;72.44;99500.03;2209476;81;21304;-87
2021/03/24 08:40:08;;;;;;;29.82;18.82;;;;;;;6.02;72.18;99500.07;2209380;80;21166;-84
2021/03/24 08:43:10;;;;;;;39.85;21.77;;;;;;;5.94;72.43;99501.20;2209378;79;21189;-83
2021/03/24 08:46:11;;;;;;;34.03;20.57;;;;;;;5.90;72.47;99495.90;2209408;79;21113;-83
2021/03/24 08:49:13;;;;;;;32.85;19.92;;;;;;;5.86;72.42;99499.25;2201733;79;21113;-85
2021/03/24 08:52:15;;;;;;;32.00;19.32;;;;;;;5.84;72.50;99505.02;2201431;81;21280;-83
2021/03/24 08:55:17;;;;;;;37.70;20.97;;;;;;;5.79;72.61;99503.31;2204879;79;21257;-84
2021/03/24 08:58:18;;;;;;;28.45;16.73;;;;;;;5.78;72.53;99500.37;2200873;81;21297;-83
2021/03/24 09:01:20;;;;;;;25.90;18.57;;;;;;;5.75;72.65;99495.89;2212686;79;21316;-82
2021/03/24 09:04:22;;;;;;;36.77;21.37;;;;;;;5.77;72.65;99488.81;2209076;81;21729;-79
2021/03/24 09:07:23;;;;;;;36.65;20.05;;;;;;;5.79;72.74;99482.52;2210461;79;21157;-83
2021/03/24 09:10:25;;;;;;;30.85;19.67;;;;;;;5.87;72.74;99496.17;2206183;79;21136;-85
2021/03/24 09:13:26;;;;;;;34.95;18.57;;;;;;;5.97;72.62;99487.95;2216980;79;21268;-82
2021/03/24 09:16:28;;;;;;;32.33;18.80;;;;;;;6.07;72.32;99486.22;2201735;79;21287;-82
2021/03/24 09:19:29;;;;;;;28.15;17.95;;;;;;;6.14;72.30;99487.34;2216921;79;21265;-81
2021/03/24 09:22:31;;;;;;;28.52;16.62;;;;;;;6.25;71.87;99491.60;2218184;79;21274;-81
2021/03/24 09:25:33;;;;;;;29.52;18.02;;;;;;;6.26;71.66;99488.87;2204968;81;21124;-81
2021/03/24 09:28:35;;;;;;;39.48;18.35;;;;;;;6.33;71.73;99489.64;2173174;82;21580;-80
2021/03/24 09:31:36;;;;;;;29.98;18.80;;;;;;;6.38;71.54;99488.75;2176453;81;21275;-79
2021/03/24 09:34:38;;;;;;;30.10;17.62;;;;;;;6.38;71.42;99490.05;2211603;79;21261;-81
2021/03/24 09:37:40;;;;;;;30.77;17.02;;;;;;;6.46;71.42;99486.30;2224475;80;21293;-79
2021/03/24 09:40:42;;;;;;;30.77;17.32;;;;;;;6.51;71.09;99489.34;2210242;80;21449;-79
2021/03/24 09:43:43;;;;;;;31.90;17.80;;;;;;;6.56;71.23;99487.95;2185334;80;21154;-81
2021/03/24 09:46:45;;;;;;;25.15;17.40;;;;;;;6.68;70.90;99484.77;2178896;81;21134;-81
2021/03/24 09:49:46;;;;;;;25.15;17.42;;;;;;;6.75;70.79;99484.55;2219387;80;21685;-80
2021/03/24 09:52:48;;;;;;;27.10;15.50;;;;;;;6.82;70.56;99480.45;2232524;78;21281;-79
2021/03/24 09:55:50;;;;;;;21.65;14.20;;;;;;;6.88;70.15;99476.48;2261464;78;21256;-80
2021/03/24 09:58:52;;;;;;;19.77;13.65;;;;;;;6.96;69.66;99481.02;2230170;78;21610;-80
2021/03/24 10:01:53;;;;;;;18.82;13.70;;;;;;;7.03;69.46;99475.57;2238050;78;21309;-80
2021/03/24 10:04:55;;;;;;;20.82;12.05;;;;;;;7.06;68.74;99473.53;2229978;80;21281;-79
2021/03/24 10:07:56;;;;;;;18.87;13.48;;;;;;;7.15;68.60;99471.06;2228670;78;21117;-80
2021/03/24 10:10:58;;;;;;;21.70;15.32;;;;;;;7.18;68.28;99472.89;2232199;78;21138;-80
2021/03/24 10:14:00;;;;;;;20.05;13.53;;;;;;;7.22;68.39;99470.81;2217212;78;21530;-79
2021/03/24 10:17:01;;;;;;;18.10;12.15;;;;;;;7.28;68.40;99472.39;2230155;78;21157;-81
2021/03/24 10:20:03;;;;;;;16.05;12.05;;;;;;;7.36;66.92;99476.42;2229457;80;21294;-79
2021/03/24 10:23:04;;;;;;;18.67;13.28;;;;;;;7.35;66.47;99474.78;2231489;78;21244;-81
2021/03/24 10:26:06;;;;;;;17.35;12.03;;;;;;;7.30;66.72;99469.64;2206834;78;21296;-83
2021/03/24 10:29:08;;;;;;;19.25;11.30;;;;;;;7.28;67.08;99469.78;2224748;78;21289;-79
2021/03/24 10:32:10;;;;;;;18.32;12.98;;;;;;;7.29;66.85;99468.00;2267578;78;21326;-79
2021/03/24 10:35:11;;;;;;;19.00;13.05;;;;;;;7.26;66.55;99466.99;2267026;78;21247;-80
2021/03/24 10:38:13;;;;;;;20.65;13.55;;;;;;;7.27;66.82;99467.33;2260926;78;21151;-80
2021/03/24 10:41:15;;;;;;;17.60;13.38;;;;;;;7.26;66.90;99467.81;2229707;80;21207;-79
2021/03/24 10:44:16;;;;;;;21.50;14.93;;;;;;;7.32;66.70;99464.66;2264134;78;21199;-80
2021/03/24 10:47:18;;;;;;;18.55;12.60;;;;;;;7.41;66.80;99465.59;2234246;78;21305;-82
2021/03/24 10:50:19;;;;;;;20.05;14.00;;;;;;;7.46;65.43;99469.89;2243492;78;21779;-81
2021/03/24 10:53:21;;;;;;;23.65;15.00;;;;;;;7.39;65.49;99472.70;2232044;80;21319;-82
2021/03/24 10:56:26;;;;;;;20.48;14.05;;;;;;;7.28;65.49;99463.27;2252837;78;21245;-82
2021/03/24 10:59:27;;;;;;;15.70;12.75;;;;;;;7.18;65.74;99466.86;2243885;78;21244;-82
2021/03/24 11:02:28;;;;;;;20.97;15.68;;;;;;;7.09;65.78;99466.73;2248691;78;21277;-84
2021/03/24 11:05:29;;;;;;;21.77;14.80;;;;;;;7.01;65.76;99466.59;2212109;80;21182;-83
2021/03/24 11:08:31;;;;;;;27.45;17.07;;;;;;;6.95;65.98;99458.06;2262358;78;21260;-83
2021/03/24 11:11:33;;;;;;;23.62;15.93;;;;;;;6.91;66.00;99466.27;2233103;80;21153;-82
2021/03/24 11:14:34;;;;;;;22.85;16.50;;;;;;;6.90;66.40;99457.64;2233155;80;21300;-83
2021/03/24 11:17:37;;;;;;;21.50;15.38;;;;;;;6.91;66.38;99455.38;2233284;78;21141;-82
2021/03/24 11:20:39;;;;;;;24.65;15.65;;;;;;;6.90;66.38;99451.61;2233540;80;21256;-84
2021/03/24 11:23:40;;;;;;;21.17;14.98;;;;;;;6.94;66.44;99451.66;2234204;80;21708;-83
2021/03/24 11:26:42;;;;;;;22.25;17.12;;;;;;;6.95;66.25;99446.34;2234789;80;21284;-83
2021/03/24 11:29:43;;;;;;;24.95;17.25;;;;;;;6.91;66.46;99447.56;2233474;80;21150;-83
2021/03/24 11:32:45;;;;;;;17.65;13.75;;;;;;;6.93;66.50;99452.63;2233759;80;21122;-84
2021/03/24 11:35:46;;;;;;;18.77;15.13;;;;;;;7.02;66.05;99446.11;2233711;80;21114;-84
2021/03/24 11:38:48;;;;;;;22.85;14.47;;;;;;;7.06;66.12;99440.98;2233425;80;21292;-84
2021/03/24 11:41:50;;;;;;;19.50;13.58;;;;;;;7.09;66.26;99442.47;2233438;80;21315;-83
2021/03/24 11:44:51;;;;;;;15.28;12.00;;;;;;;7.11;65.85;99434.86;2232241;78;22203;-83
2021/03/24 11:47:59;;;;;;;22.62;16.52;;;;;;;7.14;65.99;99432.47;2238919;78;21676;-82
2021/03/24 11:50:56;;;;;;;20.52;13.80;;;;;;;7.16;65.95;99441.44;2210846;78;21275;-83
2021/03/24 11:53:58;;;;;;;23.30;14.68;;;;;;;7.16;65.78;99437.53;2232802;78;21698;-83
2021/03/24 11:56:59;;;;;;;23.67;17.45;;;;;;;7.20;65.54;99438.41;2234630;78;22224;-83
2021/03/24 12:00:01;;;;;;;22.75;16.45;;;;;;;7.25;65.73;99434.91;2217734;78;21253;-86
2021/03/24 12:03:02;;;;;;;21.42;14.25;;;;;;;7.29;65.18;99433.66;2253106;78;21292;-92
2021/03/24 12:06:04;;;;;;;25.12;16.17;;;;;;;7.43;65.33;99428.48;2236121;80;21163;-85
2021/03/24 12:09:09;;;;;;;26.97;16.67;;;;;;;7.58;65.00;99419.22;2226913;78;21257;-84
2021/03/24 12:12:09;;;;;;;20.32;14.43;;;;;;;7.69;64.94;99412.55;2261188;78;21118;-87
2021/03/24 12:15:10;;;;;;;22.82;15.55;;;;;;;7.83;64.06;99416.94;2274999;78;21293;-84
2021/03/24 12:18:12;;;;;;;15.18;12.98;;;;;;;7.88;64.47;99407.72;2224537;78;21717;-86
2021/03/24 12:21:13;;;;;;;20.60;15.43;;;;;;;7.98;63.27;99405.06;2256413;78;21294;-84
2021/03/24 12:24:15;;;;;;;15.38;11.38;;;;;;;8.01;63.90;99411.28;2219096;79;21228;-81
2021/03/24 12:27:16;;;;;;;15.55;11.63;;;;;;;8.06;63.60;99409.07;2219080;80;21265;-81
2021/03/24 12:30:18;;;;;;;24.60;15.18;;;;;;;8.14;63.54;99415.68;2219049;80;21329;-80
2021/03/24 12:33:21;;;;;;;15.72;11.95;;;;;;;8.30;63.82;99405.05;2219091;80;21171;-81
2021/03/24 12:36:23;;;;;;;16.65;12.53;;;;;;;8.50;62.81;99403.52;2219178;80;21294;-83
2021/03/24 12:39:24;;;;;;;20.55;16.23;;;;;;;8.66;62.49;99404.12;2219162;80;21288;-82
2021/03/24 12:42:26;;;;;;;18.80;14.47;;;;;;;8.82;62.52;99398.22;2218927;80;21308;-81
2021/03/24 12:45:28;;;;;;;19.60;13.38;;;;;;;9.03;62.67;99396.08;2221856;80;21615;-81
2021/03/24 12:48:34;;;;;;;21.87;14.80;;;;;;;9.16;61.26;99397.00;2236630;80;21317;-80
2021/03/24 12:51:33;;;;;;;20.17;13.90;;;;;;;9.24;61.50;99394.44;2236255;80;21150;-82
2021/03/24 12:54:35;;;;;;;17.17;13.53;;;;;;;9.32;60.96;99391.02;2236856;80;21126;-81
2021/03/24 12:57:36;;;;;;;18.62;13.98;;;;;;;9.49;61.92;99388.02;2236513;80;21145;-82
2021/03/24 13:00:38;;;;;;;22.15;15.32;;;;;;;9.66;61.14;99387.94;2236481;80;21149;-81
2021/03/24 13:03:40;;;;;;;17.55;12.75;;;;;;;9.66;60.66;99381.39;2236493;80;21165;-81
2021/03/24 13:06:41;;;;;;;16.17;12.50;;;;;;;9.56;60.65;99380.70;2236799;80;21777;-81
2021/03/24 13:09:43;;;;;;;17.23;12.18;;;;;;;9.47;59.97;99382.13;2236603;80;21589;-82
2021/03/24 13:12:45;;;;;;;14.75;11.33;;;;;;;9.29;59.85;99380.89;2236731;80;21544;-81
2021/03/24 13:15:47;;;;;;;15.38;12.30;;;;;;;9.05;59.57;99383.70;2236806;80;21711;-80
2021/03/24 13:18:51;;;;;;;12.35;10.20;;;;;;;8.75;59.54;99387.55;2236616;80;21719;-81
2021/03/24 13:21:52;;;;;;;18.42;11.35;;;;;;;8.50;59.60;99385.24;2236772;80;21320;-80
2021/03/24 13:24:54;;;;;;;14.53;11.75;;;;;;;8.32;60.04;99385.70;2236713;80;21589;-80
2021/03/24 13:27:56;;;;;;;15.60;11.10;;;;;;;8.16;60.14;99382.44;2236754;80;21307;-84
2021/03/24 13:30:57;;;;;;;15.50;10.18;;;;;;;8.05;60.20;99393.08;2236660;80;21287;-82
2021/03/24 13:33:59;;;;;;;13.58;11.20;;;;;;;8.00;60.58;99384.87;2236611;80;21283;-83
2021/03/24 13:37:00;;;;;;;16.17;11.95;;;;;;;7.95;60.58;99381.86;2236871;80;21307;-83
2021/03/24 13:40:02;;;;;;;16.62;12.07;;;;;;;7.92;60.87;99371.25;2236850;80;21164;-84
2021/03/24 13:43:04;;;;;;;16.37;11.80;;;;;;;7.94;60.92;99368.01;2236502;80;21130;-83
2021/03/24 13:46:05;;;;;;;15.38;11.65;;;;;;;8.04;60.70;99374.95;2236658;79;21166;-84
2021/03/24 13:49:07;;;;;;;22.02;15.53;;;;;;;8.17;60.77;99372.81;2236676;80;21577;-83
2021/03/24 13:52:08;;;;;;;20.50;14.05;;;;;;;8.26;60.34;99368.83;2237160;80;21285;-84
2021/03/24 13:55:10;;;;;;;21.20;14.30;;;;;;;8.35;59.95;99373.68;2236930;80;21621;-85
2021/03/24 13:58:12;;;;;;;24.40;15.20;;;;;;;8.44;60.01;99369.36;2236662;80;21284;-84
2021/03/24 14:01:13;;;;;;;31.27;20.00;;;;;;;8.52;60.05;99362.91;2236695;80;21592;-85
2021/03/24 14:04:17;;;;;;;19.30;14.07;;;;;;;8.57;59.95;99365.86;2236462;80;21150;-86
2021/03/24 14:07:18;;;;;;;17.27;12.45;;;;;;;8.62;59.58;99362.81;2236541;80;21295;-85